Time;durP1;ratioP1;P1;durP2;ratioP2;P2;SDS_P1;SDS_P2;PMS_P1;PMS_P2;Temp;Humidity;BMP_temperature;BMP_pressure;BME280_temperature;BME280_humidity;BME280_pressure;Samples;Min_cycle;Max_cycle;Signal;HPM_P1;HPM_P2
2022/01/03 00:01:56;;;;;;;4.35;1.70;;;;;;;;;;5040118;28;20202;-74
2022/01/03 00:04:23;;;;;;;3.38;1.85;;;;;;;;;;5050803;28;20207;-74
2022/01/03 00:06:51;;;;;;;3.92;1.60;;;;;;;;;;5052559;28;20206;-74
2022/01/03 00:09:19;;;;;;;2.55;2.22;;;;;;;;;;5050697;28;20213;-74
2022/01/03 00:11:46;;;;;;;3.95;1.70;;;;;;;;;;5046541;28;20218;-73
2022/01/03 00:14:13;;;;;;;6.47;2.05;;;;;;;;;;5050574;28;20191;-74
2022/01/03 00:16:40;;;;;;;3.60;1.50;;;;;;;;;;5046932;28;20677;-74
2022/01/03 00:19:07;;;;;;;4.47;2.13;;;;;;;;;;5052510;28;20202;-74
2022/01/03 00:21:38;;;;;;;3.10;1.88;;;;;;;;;;5048067;28;20531;-74
2022/01/03 00:24:07;;;;;;;3.17;1.95;;;;;;;;;;5047838;28;20213;-73
2022/01/03 00:26:36;;;;;;;4.43;1.60;;;;;;;;;;5055933;28;20186;-74
2022/01/03 00:29:08;;;;;;;5.70;2.10;;;;;;;;;;5052216;28;20206;-73
2022/01/03 00:31:36;;;;;;;5.30;2.15;;;;;;;;;;5050136;28;20578;-74
2022/01/03 00:34:04;;;;;;;3.00;1.80;;;;;;;;;;5051494;28;20191;-73
2022/01/03 00:36:31;;;;;;;3.35;2.00;;;;;;;;;;5051404;28;20663;-74
2022/01/03 00:38:58;;;;;;;13.20;3.15;;;;;;;;;;5050428;28;20199;-73
2022/01/03 00:41:26;;;;;;;4.70;2.25;;;;;;;;;;5051643;28;20221;-75
2022/01/03 00:43:55;;;;;;;4.22;2.15;;;;;;;;;;5048002;28;20211;-74
2022/01/03 00:46:23;;;;;;;1.88;1.67;;;;;;;;;;5038376;28;20191;-73
2022/01/03 00:48:50;;;;;;;4.88;1.73;;;;;;;;;;5051031;28;20596;-73
2022/01/03 00:51:19;;;;;;;4.22;2.15;;;;;;;;;;5051039;28;20253;-74
2022/01/03 00:53:47;;;;;;;2.95;1.40;;;;;;;;;;5048562;28;20242;-75
2022/01/03 00:56:15;;;;;;;5.70;1.70;;;;;;;;;;5041379;28;20744;-74
2022/01/03 00:58:47;;;;;;;3.53;1.67;;;;;;;;;;5048567;28;20255;-74
2022/01/03 01:01:16;;;;;;;3.10;2.20;;;;;;;;;;5049027;28;20215;-74
2022/01/03 01:03:43;;;;;;;4.00;1.70;;;;;;;;;;5047504;28;20651;-74
2022/01/03 01:06:11;;;;;;;6.63;1.98;;;;;;;;;;5051536;28;20195;-73
2022/01/03 01:08:38;;;;;;;6.75;2.20;;;;;;;;;;5047696;28;20234;-74
2022/01/03 01:11:07;;;;;;;6.43;2.10;;;;;;;;;;5050479;28;20195;-75
2022/01/03 01:13:36;;;;;;;3.13;1.55;;;;;;;;;;5049082;28;20261;-73
2022/01/03 01:16:04;;;;;;;5.68;1.95;;;;;;;;;;5044491;28;20202;-74
2022/01/03 01:18:36;;;;;;;6.10;2.03;;;;;;;;;;5047148;28;20203;-74
2022/01/03 01:21:03;;;;;;;5.47;1.98;;;;;;;;;;5049376;28;20191;-74
2022/01/03 01:23:30;;;;;;;3.50;2.03;;;;;;;;;;5050461;28;20190;-73
2022/01/03 01:28:42;;;;;;;7.10;3.30;;;;;;;;;;5044077;28;20241;-74
2022/01/03 01:31:12;;;;;;;12.73;2.35;;;;;;;;;;5050523;28;20202;-74
2022/01/03 01:33:41;;;;;;;5.13;1.90;;;;;;;;;;5049801;28;20218;-74
2022/01/03 01:36:08;;;;;;;9.75;2.42;;;;;;;;;;5049013;28;20191;-73
2022/01/03 01:38:36;;;;;;;7.68;2.10;;;;;;;;;;5051226;28;20198;-74
2022/01/03 01:41:06;;;;;;;4.05;1.80;;;;;;;;;;5047379;28;20294;-74
2022/01/03 01:43:35;;;;;;;3.78;3.28;;;;;;;;;;5048272;28;20191;-73
2022/01/03 01:46:04;;;;;;;6.18;2.80;;;;;;;;;;5045394;28;20196;-75
2022/01/03 01:48:32;;;;;;;5.38;2.05;;;;;;;;;;5049097;28;20199;-74
2022/01/03 01:51:01;;;;;;;6.07;2.28;;;;;;;;;;5049194;28;20202;-74
2022/01/03 01:53:28;;;;;;;6.00;2.40;;;;;;;;;;5050219;28;20245;-75
2022/01/03 01:55:56;;;;;;;3.63;2.35;;;;;;;;;;5048583;28;20198;-73
2022/01/03 01:58:29;;;;;;;8.35;3.58;;;;;;;;;;5049016;28;20202;-74
2022/01/03 02:00:58;;;;;;;8.50;3.13;;;;;;;;;;5046351;28;20238;-73
2022/01/03 02:03:27;;;;;;;7.75;2.42;;;;;;;;;;5050786;28;20684;-73
2022/01/03 02:05:58;;;;;;;6.30;2.80;;;;;;;;;;5051282;28;20195;-73
2022/01/03 02:08:28;;;;;;;9.18;3.10;;;;;;;;;;5048355;28;20202;-73
2022/01/03 02:10:59;;;;;;;5.80;3.10;;;;;;;;;;5048521;28;20197;-73
2022/01/03 02:13:27;;;;;;;3.70;2.13;;;;;;;;;;5046568;28;20678;-73
2022/01/03 02:16:00;;;;;;;7.30;2.88;;;;;;;;;;5047414;28;20635;-73
2022/01/03 02:18:27;;;;;;;5.18;2.60;;;;;;;;;;5048937;28;20195;-73
2022/01/03 02:20:55;;;;;;;5.93;2.72;;;;;;;;;;5050461;28;20210;-73
2022/01/03 02:23:22;;;;;;;8.32;3.22;;;;;;;;;;5047634;28;20198;-73
2022/01/03 02:25:49;;;;;;;6.45;3.00;;;;;;;;;;5043191;28;20206;-74
2022/01/03 02:28:20;;;;;;;7.63;2.47;;;;;;;;;;5049012;28;20199;-75
2022/01/03 02:30:47;;;;;;;4.45;2.50;;;;;;;;;;5046903;28;20685;-73
2022/01/03 02:33:14;;;;;;;6.82;2.78;;;;;;;;;;5045412;28;20223;-73
2022/01/03 02:35:42;;;;;;;6.10;2.85;;;;;;;;;;5050463;28;20685;-73
2022/01/03 02:38:11;;;;;;;9.90;2.83;;;;;;;;;;5049200;28;20298;-73
2022/01/03 02:40:38;;;;;;;7.45;3.20;;;;;;;;;;5038731;28;20682;-73
2022/01/03 02:43:05;;;;;;;6.68;2.90;;;;;;;;;;5048499;28;20199;-75
2022/01/03 02:45:33;;;;;;;4.88;2.35;;;;;;;;;;5047476;28;20207;-75
2022/01/03 02:48:01;;;;;;;7.22;2.67;;;;;;;;;;5044789;28;20690;-74
2022/01/03 02:50:29;;;;;;;8.80;2.70;;;;;;;;;;5048773;28;20199;-73
2022/01/03 02:52:56;;;;;;;6.47;2.67;;;;;;;;;;5050556;28;20214;-74
2022/01/03 02:55:26;;;;;;;9.68;2.80;;;;;;;;;;5048450;28;20203;-74
2022/01/03 02:57:54;;;;;;;6.43;3.30;;;;;;;;;;5050073;28;20198;-73
2022/01/03 03:00:24;;;;;;;8.38;3.00;;;;;;;;;;5049194;28;20218;-73
2022/01/03 03:02:51;;;;;;;7.60;3.15;;;;;;;;;;5030540;28;20206;-72
2022/01/03 03:05:18;;;;;;;7.00;3.60;;;;;;;;;;5049297;28;20570;-74
2022/01/03 03:07:46;;;;;;;11.25;2.97;;;;;;;;;;5048279;28;20194;-74
2022/01/03 03:10:16;;;;;;;11.93;2.92;;;;;;;;;;5048793;28;20238;-73
2022/01/03 03:12:45;;;;;;;16.10;3.00;;;;;;;;;;5050246;28;20230;-76
2022/01/03 03:15:13;;;;;;;5.97;2.88;;;;;;;;;;5047389;28;20195;-76
2022/01/03 03:17:41;;;;;;;8.13;3.05;;;;;;;;;;5047756;28;20214;-76
2022/01/03 03:20:09;;;;;;;7.60;2.50;;;;;;;;;;5048399;28;20665;-76
2022/01/03 03:22:37;;;;;;;8.45;3.15;;;;;;;;;;5045265;28;20195;-76
2022/01/03 03:25:06;;;;;;;11.70;3.42;;;;;;;;;;5047782;28;20195;-76
2022/01/03 03:27:33;;;;;;;8.38;2.83;;;;;;;;;;5052030;28;20199;-76
2022/01/03 03:30:01;;;;;;;10.30;3.13;;;;;;;;;;5050531;28;20562;-76
2022/01/03 03:32:29;;;;;;;11.52;3.25;;;;;;;;;;5048948;28;20206;-76
2022/01/03 03:34:56;;;;;;;9.65;3.13;;;;;;;;;;5054108;28;20195;-76
2022/01/03 03:37:23;;;;;;;10.43;2.78;;;;;;;;;;5052450;28;20453;-75
2022/01/03 03:39:50;;;;;;;8.00;2.95;;;;;;;;;;5050981;28;20199;-75
2022/01/03 03:42:17;;;;;;;8.63;2.72;;;;;;;;;;5052522;28;20199;-75
2022/01/03 03:44:45;;;;;;;12.32;3.03;;;;;;;;;;5051004;28;20198;-76
2022/01/03 03:47:13;;;;;;;4.32;2.45;;;;;;;;;;5045385;28;20190;-75
2022/01/03 03:49:41;;;;;;;12.40;3.97;;;;;;;;;;5052522;28;20225;-76
2022/01/03 03:52:08;;;;;;;10.10;3.88;;;;;;;;;;5050861;28;20207;-75
2022/01/03 03:54:35;;;;;;;8.05;3.30;;;;;;;;;;5052729;28;20218;-75
2022/01/03 03:57:03;;;;;;;9.98;3.28;;;;;;;;;;5041929;28;20689;-75
2022/01/03 03:59:30;;;;;;;7.80;3.78;;;;;;;;;;5047040;28;20594;-75
2022/01/03 04:01:57;;;;;;;8.73;2.20;;;;;;;;;;5045293;28;20574;-75
2022/01/03 04:04:26;;;;;;;5.72;2.90;;;;;;;;;;5053427;28;20191;-75
2022/01/03 04:06:53;;;;;;;7.55;2.85;;;;;;;;;;5052484;28;20199;-75
2022/01/03 04:09:20;;;;;;;16.55;3.08;;;;;;;;;;5046300;28;20225;-75
2022/01/03 04:11:47;;;;;;;8.98;2.67;;;;;;;;;;5052657;28;20217;-75
2022/01/03 04:14:14;;;;;;;11.00;3.05;;;;;;;;;;5052480;28;20214;-75
2022/01/03 04:16:41;;;;;;;9.32;2.60;;;;;;;;;;5045199;28;20565;-75
2022/01/03 04:19:08;;;;;;;9.07;2.40;;;;;;;;;;5052870;28;20202;-75
2022/01/03 04:21:39;;;;;;;4.53;2.40;;;;;;;;;;5052790;28;20532;-75
2022/01/03 04:24:07;;;;;;;9.38;3.22;;;;;;;;;;5052133;28;20194;-76
2022/01/03 04:26:34;;;;;;;9.40;3.10;;;;;;;;;;5045601;28;20281;-75
2022/01/03 04:29:01;;;;;;;13.68;3.15;;;;;;;;;;5044318;28;20194;-75
2022/01/03 04:31:28;;;;;;;9.98;2.75;;;;;;;;;;5045977;28;20211;-75
2022/01/03 04:33:56;;;;;;;7.40;2.40;;;;;;;;;;5052128;28;20218;-75
2022/01/03 04:36:24;;;;;;;7.28;2.55;;;;;;;;;;5051110;28;20570;-75
2022/01/03 04:38:52;;;;;;;6.25;2.40;;;;;;;;;;5050268;28;20681;-75
2022/01/03 04:41:19;;;;;;;10.10;3.35;;;;;;;;;;5049705;28;20205;-75
2022/01/03 04:43:46;;;;;;;6.55;2.13;;;;;;;;;;5048123;28;20199;-77
2022/01/03 04:46:14;;;;;;;8.15;2.33;;;;;;;;;;5044943;28;20207;-76
2022/01/03 04:48:42;;;;;;;6.10;2.72;;;;;;;;;;5051510;28;20199;-75
2022/01/03 04:51:09;;;;;;;9.35;3.40;;;;;;;;;;5047677;28;20218;-75
2022/01/03 04:53:39;;;;;;;7.13;2.60;;;;;;;;;;5048504;28;20229;-75
2022/01/03 04:56:08;;;;;;;8.10;2.80;;;;;;;;;;5038111;28;20207;-75
2022/01/03 04:58:35;;;;;;;5.30;2.45;;;;;;;;;;5050161;28;20661;-75
2022/01/03 05:01:02;;;;;;;8.00;2.00;;;;;;;;;;5048281;28;20219;-75
2022/01/03 05:03:29;;;;;;;5.97;2.55;;;;;;;;;;5051634;28;20585;-76
2022/01/03 05:05:56;;;;;;;6.95;2.75;;;;;;;;;;5056443;28;20194;-76
2022/01/03 05:08:23;;;;;;;12.45;3.90;;;;;;;;;;5048450;28;20574;-75
2022/01/03 05:10:50;;;;;;;6.38;2.67;;;;;;;;;;5047102;28;20671;-76
2022/01/03 05:13:19;;;;;;;10.23;2.60;;;;;;;;;;5050681;28;20218;-75
2022/01/03 05:15:46;;;;;;;8.82;2.92;;;;;;;;;;5047903;28;20198;-76
2022/01/03 05:18:13;;;;;;;5.72;2.35;;;;;;;;;;5050300;28;20198;-76
2022/01/03 05:20:40;;;;;;;11.75;3.60;;;;;;;;;;5051016;28;20339;-75
2022/01/03 05:23:07;;;;;;;11.23;2.88;;;;;;;;;;5050862;28;20195;-75
2022/01/03 05:25:34;;;;;;;10.63;3.05;;;;;;;;;;5048698;28;20207;-76
2022/01/03 05:28:01;;;;;;;13.68;2.47;;;;;;;;;;5051523;28;20194;-76
2022/01/03 05:30:29;;;;;;;7.35;3.08;;;;;;;;;;5050954;28;20219;-76
2022/01/03 05:32:56;;;;;;;9.80;2.50;;;;;;;;;;5048654;28;20202;-76
2022/01/03 05:35:24;;;;;;;8.77;2.85;;;;;;;;;;5050574;28;20564;-75
2022/01/03 05:37:51;;;;;;;5.10;2.03;;;;;;;;;;5048993;28;20207;-75
2022/01/03 05:40:18;;;;;;;9.68;2.90;;;;;;;;;;5037087;28;20199;-76
2022/01/03 05:42:46;;;;;;;6.68;2.30;;;;;;;;;;5049029;28;20286;-75
2022/01/03 05:45:13;;;;;;;7.63;2.85;;;;;;;;;;5051540;28;20198;-76
2022/01/03 05:47:44;;;;;;;7.35;2.42;;;;;;;;;;5048401;28;20213;-75
2022/01/03 05:50:11;;;;;;;4.05;1.80;;;;;;;;;;5051070;28;20224;-75
2022/01/03 05:52:39;;;;;;;4.95;3.10;;;;;;;;;;5050445;28;20727;-75
2022/01/03 05:55:06;;;;;;;4.85;1.45;;;;;;;;;;5041997;28;20218;-75
2022/01/03 05:57:34;;;;;;;8.38;2.78;;;;;;;;;;5051027;28;20198;-75
2022/01/03 06:00:03;;;;;;;9.07;2.20;;;;;;;;;;5047141;28;20223;-75
2022/01/03 06:02:34;;;;;;;7.05;2.80;;;;;;;;;;5041088;28;20766;-75
2022/01/03 06:05:05;;;;;;;9.73;2.97;;;;;;;;;;5050255;28;20203;-75
2022/01/03 06:07:32;;;;;;;7.60;2.25;;;;;;;;;;5050038;28;20205;-75
2022/01/03 06:09:59;;;;;;;3.35;1.83;;;;;;;;;;5048074;28;20210;-75
2022/01/03 06:12:26;;;;;;;8.73;1.90;;;;;;;;;;5050931;28;20198;-75
2022/01/03 06:14:55;;;;;;;11.27;4.93;;;;;;;;;;5050399;28;20218;-74
2022/01/03 06:17:22;;;;;;;6.38;2.83;;;;;;;;;;5047023;28;20658;-75
2022/01/03 06:19:49;;;;;;;9.40;3.05;;;;;;;;;;5051354;28;20205;-74
2022/01/03 06:22:18;;;;;;;11.60;2.67;;;;;;;;;;5048992;28;20558;-75
2022/01/03 06:24:45;;;;;;;8.07;2.80;;;;;;;;;;5045150;28;20195;-75
2022/01/03 06:27:12;;;;;;;10.55;2.05;;;;;;;;;;5047219;28;20199;-75
2022/01/03 06:29:39;;;;;;;8.48;2.60;;;;;;;;;;5048022;28;20633;-75
2022/01/03 06:32:07;;;;;;;6.72;2.63;;;;;;;;;;5047288;28;20207;-75
2022/01/03 06:34:34;;;;;;;7.68;2.25;;;;;;;;;;5050159;28;20215;-75
2022/01/03 06:37:01;;;;;;;6.85;3.13;;;;;;;;;;5042909;28;20203;-74
2022/01/03 06:39:29;;;;;;;8.80;2.55;;;;;;;;;;5050296;28;20201;-74
2022/01/03 06:41:56;;;;;;;6.82;2.15;;;;;;;;;;5043924;28;20202;-75
2022/01/03 06:44:23;;;;;;;8.85;2.35;;;;;;;;;;5050052;28;20187;-74
2022/01/03 06:46:51;;;;;;;9.65;2.92;;;;;;;;;;5037702;28;20206;-75
2022/01/03 06:49:18;;;;;;;6.00;3.00;;;;;;;;;;5043568;28;20674;-75
2022/01/03 06:51:45;;;;;;;4.47;1.98;;;;;;;;;;5048224;28;20570;-75
2022/01/03 06:54:13;;;;;;;6.93;2.55;;;;;;;;;;5044503;28;20219;-75
2022/01/03 06:56:42;;;;;;;8.68;3.45;;;;;;;;;;5049599;28;20234;-75
2022/01/03 06:59:10;;;;;;;9.65;3.10;;;;;;;;;;5048468;28;20198;-77
2022/01/03 07:01:37;;;;;;;5.28;2.15;;;;;;;;;;5047397;28;20659;-77
2022/01/03 07:04:05;;;;;;;8.05;2.35;;;;;;;;;;5049864;28;20191;-77
2022/01/03 07:06:32;;;;;;;9.18;2.30;;;;;;;;;;5049973;28;20191;-78
2022/01/03 07:08:59;;;;;;;11.13;2.63;;;;;;;;;;5045860;28;20253;-78
2022/01/03 07:11:26;;;;;;;10.10;2.88;;;;;;;;;;5037436;28;20207;-77
2022/01/03 07:14:06;;;;;;;5.72;2.38;;;;;;;;;;5044636;28;20598;-77
2022/01/03 07:19:17;;;;;;;6.82;2.40;;;;;;;;;;5052176;28;20196;-78
2022/01/03 07:21:44;;;;;;;9.45;2.65;;;;;;;;;;5055960;28;20210;-77
2022/01/03 07:24:12;;;;;;;9.40;3.97;;;;;;;;;;5055440;28;20194;-77
2022/01/03 07:26:39;;;;;;;11.13;2.70;;;;;;;;;;5052694;28;20206;-77
2022/01/03 07:29:07;;;;;;;5.85;2.05;;;;;;;;;;5049850;28;20199;-77
2022/01/03 07:31:34;;;;;;;7.00;2.78;;;;;;;;;;5044085;28;20237;-77
2022/01/03 07:34:01;;;;;;;7.68;2.15;;;;;;;;;;5048021;28;20223;-77
2022/01/03 07:36:30;;;;;;;8.63;2.60;;;;;;;;;;5048547;28;20199;-78
2022/01/03 07:38:57;;;;;;;5.82;1.67;;;;;;;;;;5044628;28;20200;-77
2022/01/03 07:41:24;;;;;;;6.88;2.65;;;;;;;;;;5041950;28;20202;-77
2022/01/03 07:43:51;;;;;;;5.55;2.28;;;;;;;;;;5043066;28;20209;-77
2022/01/03 07:46:19;;;;;;;7.80;2.58;;;;;;;;;;5042492;28;20202;-77
2022/01/03 07:48:46;;;;;;;2.78;1.77;;;;;;;;;;5047856;28;20195;-77
2022/01/03 07:51:13;;;;;;;14.20;2.90;;;;;;;;;;5049523;28;20270;-78
2022/01/03 07:53:42;;;;;;;8.70;3.00;;;;;;;;;;5046275;28;20195;-78
2022/01/03 07:56:10;;;;;;;5.07;2.40;;;;;;;;;;5045033;28;20245;-78
2022/01/03 07:58:37;;;;;;;5.93;3.03;;;;;;;;;;5047957;28;20272;-78
2022/01/03 08:01:04;;;;;;;8.48;2.45;;;;;;;;;;5044829;28;20216;-78
2022/01/03 08:03:32;;;;;;;5.93;2.08;;;;;;;;;;5049715;28;20198;-77
2022/01/03 08:05:59;;;;;;;7.90;2.75;;;;;;;;;;5046896;28;20990;-78
2022/01/03 08:08:27;;;;;;;11.63;3.08;;;;;;;;;;5048460;28;20654;-78
2022/01/03 08:10:54;;;;;;;5.60;1.90;;;;;;;;;;5051217;28;20203;-77
2022/01/03 08:13:21;;;;;;;5.03;2.72;;;;;;;;;;5058492;28;20192;-77
2022/01/03 08:15:48;;;;;;;5.97;2.70;;;;;;;;;;5051905;28;20493;-77
2022/01/03 08:18:15;;;;;;;7.38;2.30;;;;;;;;;;5053035;28;20199;-77
2022/01/03 08:20:43;;;;;;;5.63;2.45;;;;;;;;;;5052333;28;20198;-77
2022/01/03 08:23:10;;;;;;;4.78;2.63;;;;;;;;;;5051215;28;20654;-77
2022/01/03 08:25:38;;;;;;;8.15;3.83;;;;;;;;;;5051406;28;20222;-78
2022/01/03 08:28:05;;;;;;;5.57;2.50;;;;;;;;;;5059205;28;20201;-77
2022/01/03 08:30:32;;;;;;;4.28;2.15;;;;;;;;;;5060403;28;20532;-77
2022/01/03 08:32:59;;;;;;;8.27;3.72;;;;;;;;;;5060334;28;20289;-77
2022/01/03 08:35:26;;;;;;;8.52;2.17;;;;;;;;;;5049828;28;20222;-77
2022/01/03 08:37:55;;;;;;;5.70;2.38;;;;;;;;;;5051546;28;20687;-77
2022/01/03 08:40:22;;;;;;;9.85;3.97;;;;;;;;;;5050661;28;20650;-77
2022/01/03 08:42:51;;;;;;;9.55;3.38;;;;;;;;;;5051348;28;20206;-77
2022/01/03 08:45:18;;;;;;;9.23;2.80;;;;;;;;;;5050273;28;20215;-77
2022/01/03 08:47:46;;;;;;;9.00;2.95;;;;;;;;;;5044819;28;20225;-77
2022/01/03 08:50:15;;;;;;;6.90;2.92;;;;;;;;;;5050872;28;20574;-77
2022/01/03 08:52:43;;;;;;;4.25;3.15;;;;;;;;;;5050061;28;20207;-77
2022/01/03 08:55:11;;;;;;;10.45;2.80;;;;;;;;;;5045106;28;20694;-76
2022/01/03 08:57:40;;;;;;;8.45;2.35;;;;;;;;;;5046957;28;20211;-77
2022/01/03 09:00:09;;;;;;;6.25;2.10;;;;;;;;;;5050289;28;20706;-76
2022/01/03 09:02:36;;;;;;;5.75;2.35;;;;;;;;;;5048515;28;21874;-77
2022/01/03 09:05:03;;;;;;;7.95;3.05;;;;;;;;;;5051133;28;20647;-77
2022/01/03 09:07:30;;;;;;;6.95;2.50;;;;;;;;;;5050228;28;20199;-76
2022/01/03 09:09:57;;;;;;;5.07;2.38;;;;;;;;;;5045397;28;20659;-77
2022/01/03 09:12:25;;;;;;;7.05;1.65;;;;;;;;;;5046304;28;20191;-77
2022/01/03 09:14:53;;;;;;;5.53;2.28;;;;;;;;;;5051272;28;20219;-77
2022/01/03 09:17:20;;;;;;;6.45;2.58;;;;;;;;;;5048768;28;20622;-77
2022/01/03 09:19:47;;;;;;;7.40;2.38;;;;;;;;;;5050920;28;20666;-74
2022/01/03 09:22:18;;;;;;;6.60;2.15;;;;;;;;;;5050785;28;20198;-75
2022/01/03 09:24:52;;;;;;;8.68;2.85;;;;;;;;;;5052914;28;20271;-77
2022/01/03 09:30:07;;;;;;;6.63;2.38;;;;;;;;;;5058956;28;20206;-78
2022/01/03 09:32:35;;;;;;;6.47;2.28;;;;;;;;;;5052350;28;20569;-77
2022/01/03 09:35:02;;;;;;;6.45;2.58;;;;;;;;;;5064203;28;20218;-77
2022/01/03 09:37:29;;;;;;;7.65;2.47;;;;;;;;;;5062369;28;20218;-77
2022/01/03 09:39:56;;;;;;;5.13;2.90;;;;;;;;;;5065528;28;20201;-78
2022/01/03 09:42:24;;;;;;;7.72;2.70;;;;;;;;;;5049210;28;20674;-77
2022/01/03 09:44:51;;;;;;;12.38;2.35;;;;;;;;;;5051152;28;20673;-77
2022/01/03 09:47:21;;;;;;;4.53;2.20;;;;;;;;;;5043973;28;20203;-77
2022/01/03 09:49:49;;;;;;;5.15;2.95;;;;;;;;;;5054198;28;20209;-77
2022/01/03 09:52:17;;;;;;;5.65;2.20;;;;;;;;;;5051433;28;20191;-77
2022/01/03 09:54:44;;;;;;;7.03;2.33;;;;;;;;;;5051010;28;20214;-77
2022/01/03 09:57:11;;;;;;;5.78;2.45;;;;;;;;;;5051245;28;20203;-77
2022/01/03 09:59:39;;;;;;;7.93;2.67;;;;;;;;;;5057181;28;20229;-77
2022/01/03 10:02:06;;;;;;;5.50;2.58;;;;;;;;;;5043659;28;20597;-76
2022/01/03 10:04:35;;;;;;;6.68;2.97;;;;;;;;;;5051558;28;20226;-76
2022/01/03 10:07:02;;;;;;;10.25;2.97;;;;;;;;;;5053704;28;20195;-77
2022/01/03 10:09:31;;;;;;;8.50;2.72;;;;;;;;;;5049184;28;20205;-76
2022/01/03 10:11:58;;;;;;;9.15;3.55;;;;;;;;;;5034387;28;20199;-76
2022/01/03 10:14:25;;;;;;;3.50;2.00;;;;;;;;;;5049424;28;20209;-76
2022/01/03 10:16:52;;;;;;;4.20;2.60;;;;;;;;;;5046019;28;20205;-76
2022/01/03 10:19:19;;;;;;;5.70;2.50;;;;;;;;;;5050793;28;20206;-76
2022/01/03 10:21:49;;;;;;;9.15;2.90;;;;;;;;;;5050019;28;20209;-77
2022/01/03 10:24:17;;;;;;;10.32;3.60;;;;;;;;;;5042622;28;20207;-76
2022/01/03 10:26:52;;;;;;;14.10;3.53;;;;;;;;;;5049816;28;20191;-79
2022/01/03 10:29:20;;;;;;;7.78;4.50;;;;;;;;;;5042092;28;20563;-78
2022/01/03 10:31:48;;;;;;;6.72;2.22;;;;;;;;;;5037684;28;20238;-79
2022/01/03 10:34:17;;;;;;;12.25;3.45;;;;;;;;;;5046979;28;20701;-79
2022/01/03 10:36:46;;;;;;;8.20;2.40;;;;;;;;;;5045545;28;20227;-79
2022/01/03 10:39:15;;;;;;;8.10;2.50;;;;;;;;;;5046246;28;20265;-79
2022/01/03 10:41:43;;;;;;;15.13;4.53;;;;;;;;;;5028154;28;20214;-79
2022/01/03 10:44:10;;;;;;;6.30;2.83;;;;;;;;;;5048268;28;20275;-78
2022/01/03 10:46:38;;;;;;;11.85;3.40;;;;;;;;;;5044090;28;20198;-78
2022/01/03 10:49:09;;;;;;;7.95;2.95;;;;;;;;;;5042787;28;20730;-79
2022/01/03 10:51:37;;;;;;;5.90;2.90;;;;;;;;;;5047095;28;20199;-78
2022/01/03 10:54:08;;;;;;;7.90;2.75;;;;;;;;;;5045812;28;20195;-78
2022/01/03 10:56:38;;;;;;;8.15;2.83;;;;;;;;;;5037244;28;20572;-78
2022/01/03 10:59:20;;;;;;;14.88;4.40;;;;;;;;;;5043068;28;20226;-78
2022/01/03 11:01:48;;;;;;;7.80;2.40;;;;;;;;;;5037409;28;20608;-79
2022/01/03 11:04:26;;;;;;;11.23;3.55;;;;;;;;;;5047585;28;20658;-79
2022/01/03 11:10:43;;;;;;;12.40;2.80;;;;;;;;;;5044384;28;20294;-79
2022/01/03 11:13:13;;;;;;;6.80;2.83;;;;;;;;;;5039705;28;20213;-78
2022/01/03 11:15:41;;;;;;;8.90;2.97;;;;;;;;;;5041216;28;20228;-79
2022/01/03 11:18:13;;;;;;;6.03;2.90;;;;;;;;;;5041635;28;20632;-79
2022/01/03 11:20:40;;;;;;;8.05;2.85;;;;;;;;;;5047936;28;20282;-79
2022/01/03 11:23:07;;;;;;;5.00;2.10;;;;;;;;;;5046528;28;20194;-79
2022/01/03 11:25:34;;;;;;;5.88;2.00;;;;;;;;;;5044230;28;20202;-78
2022/01/03 11:28:02;;;;;;;12.90;2.58;;;;;;;;;;5043409;28;20202;-78
2022/01/03 11:30:31;;;;;;;7.10;2.53;;;;;;;;;;5038417;28;20215;-79
2022/01/03 11:33:00;;;;;;;8.10;2.70;;;;;;;;;;5043743;28;20199;-79
2022/01/03 11:35:27;;;;;;;4.75;2.38;;;;;;;;;;5047526;28;20690;-79
2022/01/03 11:37:55;;;;;;;7.53;3.30;;;;;;;;;;5046327;28;20205;-79
2022/01/03 11:40:22;;;;;;;11.07;3.15;;;;;;;;;;5045252;28;20551;-79
2022/01/03 11:42:49;;;;;;;10.60;3.10;;;;;;;;;;5045149;28;20658;-79
2022/01/03 11:45:16;;;;;;;8.93;3.25;;;;;;;;;;5048818;28;20681;-79
2022/01/03 11:47:45;;;;;;;16.23;4.18;;;;;;;;;;5034968;28;20199;-79
2022/01/03 11:50:12;;;;;;;12.30;2.90;;;;;;;;;;5051122;28;20676;-79
2022/01/03 11:52:41;;;;;;;9.43;2.47;;;;;;;;;;5051490;28;20205;-78
2022/01/03 11:55:08;;;;;;;3.97;2.42;;;;;;;;;;5050785;28;20550;-79
2022/01/03 11:57:59;;;;;;;7.30;2.88;;;;;;;;;;5050073;28;20198;-78
2022/01/03 12:05:58;;;;;;;13.27;3.80;;;;;;;;;;5031226;28;20214;-79
2022/01/03 12:08:29;;;;;;;6.45;2.55;;;;;;;;;;5047078;28;20674;-79
2022/01/03 12:10:57;;;;;;;12.98;2.45;;;;;;;;;;5040378;28;20231;-79
2022/01/03 12:13:39;;;;;;;9.18;2.53;;;;;;;;;;5039159;28;20202;-79
2022/01/03 12:16:06;;;;;;;6.75;2.55;;;;;;;;;;5044454;28;20586;-79
2022/01/03 12:18:35;;;;;;;9.70;2.85;;;;;;;;;;5050455;28;20209;-78
2022/01/03 12:21:02;;;;;;;8.00;2.70;;;;;;;;;;5046429;28;20609;-79
2022/01/03 12:23:39;;;;;;;9.23;3.65;;;;;;;;;;5048582;28;20677;-79
2022/01/03 12:26:11;;;;;;;13.85;3.40;;;;;;;;;;5041307;28;20199;-79
2022/01/03 12:28:56;;;;;;;14.27;3.88;;;;;;;;;;5049183;28;20202;-79
2022/01/03 12:31:24;;;;;;;4.93;2.70;;;;;;;;;;5042509;28;20223;-79
2022/01/03 12:34:05;;;;;;;5.20;2.40;;;;;;;;;;5044997;28;20574;-78
2022/01/03 12:36:34;;;;;;;7.22;4.35;;;;;;;;;;5050107;28;20214;-79
2022/01/03 12:39:06;;;;;;;8.93;2.50;;;;;;;;;;5048905;28;20202;-79
2022/01/03 12:41:42;;;;;;;7.30;3.65;;;;;;;;;;5038491;28;20211;-79
2022/01/03 12:44:11;;;;;;;8.02;2.60;;;;;;;;;;5045289;28;20665;-79
2022/01/03 12:46:38;;;;;;;5.10;2.33;;;;;;;;;;5041692;28;20225;-79
2022/01/03 12:49:20;;;;;;;7.22;2.90;;;;;;;;;;5038940;28;20321;-78
2022/01/03 12:51:48;;;;;;;13.38;4.00;;;;;;;;;;5035412;28;20213;-79
2022/01/03 12:54:35;;;;;;;6.72;2.97;;;;;;;;;;5047766;28;20761;-79
2022/01/03 12:57:13;;;;;;;13.35;3.88;;;;;;;;;;5041239;28;20215;-79
2022/01/03 12:59:40;;;;;;;7.40;3.58;;;;;;;;;;5049706;28;20254;-79
2022/01/03 13:02:26;;;;;;;8.52;2.92;;;;;;;;;;5045062;28;20202;-79
2022/01/03 13:04:53;;;;;;;9.75;2.92;;;;;;;;;;5049688;28;20256;-79
2022/01/03 13:07:24;;;;;;;8.50;3.80;;;;;;;;;;5044803;28;20194;-79
2022/01/03 13:09:51;;;;;;;7.00;2.20;;;;;;;;;;5047899;28;20238;-79
2022/01/03 13:12:18;;;;;;;8.70;2.75;;;;;;;;;;5046959;28;20558;-80
2022/01/03 13:14:45;;;;;;;14.43;3.20;;;;;;;;;;5048884;28;20198;-79
2022/01/03 13:17:12;;;;;;;7.43;2.35;;;;;;;;;;5041630;28;20245;-79
2022/01/03 13:19:40;;;;;;;13.10;3.10;;;;;;;;;;5048934;28;20202;-79
2022/01/03 13:22:09;;;;;;;7.90;2.70;;;;;;;;;;5048092;28;20210;-79
2022/01/03 13:24:38;;;;;;;14.10;3.42;;;;;;;;;;5041339;28;20198;-81
2022/01/03 13:27:07;;;;;;;9.32;3.17;;;;;;;;;;5047674;28;20195;-79
2022/01/03 13:29:38;;;;;;;5.40;2.33;;;;;;;;;;5044906;28;20199;-79
2022/01/03 13:32:06;;;;;;;16.88;3.33;;;;;;;;;;5037397;28;20203;-80
2022/01/03 13:34:34;;;;;;;6.22;2.40;;;;;;;;;;5046311;28;20273;-79
2022/01/03 13:37:03;;;;;;;10.20;2.03;;;;;;;;;;5048657;28;20226;-79
2022/01/03 13:39:31;;;;;;;12.35;4.15;;;;;;;;;;5045839;28;20578;-79
2022/01/03 13:42:06;;;;;;;6.10;2.47;;;;;;;;;;5039735;28;20199;-79
2022/01/03 13:44:44;;;;;;;6.93;2.28;;;;;;;;;;5048380;28;20264;-79
2022/01/03 13:49:57;;;;;;;7.10;2.30;;;;;;;;;;5030545;28;20337;-80
2022/01/03 13:52:27;;;;;;;9.35;2.38;;;;;;;;;;5047670;28;20194;-80
2022/01/03 13:55:00;;;;;;;7.22;2.05;;;;;;;;;;5041346;28;20198;-79
2022/01/03 13:57:28;;;;;;;3.40;2.10;;;;;;;;;;5044665;28;20559;-80
2022/01/03 13:59:56;;;;;;;8.73;2.03;;;;;;;;;;5046973;28;20233;-80
2022/01/03 14:02:23;;;;;;;7.75;2.42;;;;;;;;;;5040652;28;20663;-80
2022/01/03 14:04:51;;;;;;;4.72;1.75;;;;;;;;;;5046163;28;20198;-80
2022/01/03 14:30:36;;;;;;;11.38;3.03;;;;;;;;;;5123468;27;21005;-71
2022/01/03 14:33:04;;;;;;;4.65;1.92;;;;;;;;;;5101364;28;20200;-71
2022/01/03 14:35:33;;;;;;;2.42;1.50;;;;;;;;;;5099670;28;20200;-71
2022/01/03 14:38:04;;;;;;;4.03;1.63;;;;;;;;;;5099879;28;20196;-72
2022/01/03 14:40:38;;;;;;;9.05;2.55;;;;;;;;;;5099494;28;20201;-70
2022/01/03 14:43:05;;;;;;;3.50;1.48;;;;;;;;;;5103301;28;20200;-70
2022/01/03 14:45:35;;;;;;;4.35;2.47;;;;;;;;;;5098179;28;20197;-70
2022/01/03 14:48:02;;;;;;;3.78;1.63;;;;;;;;;;5102310;28;20582;-70
2022/01/03 14:50:30;;;;;;;4.80;1.80;;;;;;;;;;5102342;28;20204;-71
2022/01/03 14:52:57;;;;;;;2.20;1.60;;;;;;;;;;5099548;28;20197;-71
2022/01/03 14:55:28;;;;;;;6.10;2.70;;;;;;;;;;5096575;28;20185;-71
2022/01/03 14:57:56;;;;;;;5.78;2.20;;;;;;;;;;5083904;28;20414;-71
2022/01/03 15:00:23;;;;;;;4.50;2.50;;;;;;;;;;5094295;28;20296;-72
2022/01/03 15:02:51;;;;;;;4.22;2.30;;;;;;;;;;5100296;28;20193;-72
2022/01/03 15:05:18;;;;;;;10.32;2.13;;;;;;;;;;5102294;28;20197;-73
2022/01/03 15:07:45;;;;;;;3.83;2.20;;;;;;;;;;5096060;28;20211;-73
2022/01/03 15:10:14;;;;;;;3.15;2.10;;;;;;;;;;5102050;28;20267;-72
2022/01/03 15:12:41;;;;;;;2.53;1.73;;;;;;;;;;5103021;28;20225;-73
2022/01/03 15:15:09;;;;;;;4.70;2.22;;;;;;;;;;5103339;28;20200;-71
2022/01/03 15:17:37;;;;;;;2.83;1.70;;;;;;;;;;5102285;28;20203;-73
2022/01/03 15:20:07;;;;;;;3.08;1.67;;;;;;;;;;5110671;28;20402;-71
2022/01/03 15:22:34;;;;;;;5.18;2.33;;;;;;;;;;5092497;28;20562;-72
2022/01/03 15:25:01;;;;;;;4.70;1.80;;;;;;;;;;5097448;28;20197;-71
2022/01/03 15:27:28;;;;;;;3.05;2.03;;;;;;;;;;5087349;28;20256;-71
2022/01/03 15:29:55;;;;;;;6.28;1.52;;;;;;;;;;5074922;28;20229;-71
2022/01/03 15:32:23;;;;;;;3.15;1.63;;;;;;;;;;5067605;28;20202;-72